Time;durP1;ratioP1;P1;durP2;ratioP2;P2;SDS_P1;SDS_P2;PMS_P1;PMS_P2;Temp;Humidity;BMP_temperature;BMP_pressure;BME280_temperature;BME280_humidity;BME280_pressure;Samples;Min_cycle;Max_cycle;Signal;HPM_P1;HPM_P2
2022/05/25 00:01:15;;;;;;;14.43;10.50;;;10.40;99.90;;;;;;5053828;28;20045;-70
2022/05/25 00:03:41;;;;;;;13.20;10.85;;;10.40;99.90;;;;;;5054990;28;20123;-71
2022/05/25 00:06:09;;;;;;;13.75;11.10;;;10.40;99.90;;;;;;5055150;28;20037;-71
2022/05/25 00:08:34;;;;;;;14.35;11.32;;;10.40;99.90;;;;;;5037348;28;20076;-71
2022/05/25 00:11:00;;;;;;;14.25;11.60;;;10.40;99.90;;;;;;5054921;28;20080;-72
2022/05/25 00:13:25;;;;;;;12.63;11.30;;;10.40;99.90;;;;;;5054961;28;20045;-71
2022/05/25 00:15:51;;;;;;;14.48;11.48;;;10.40;99.90;;;;;;5052330;28;20106;-71
2022/05/25 00:18:17;;;;;;;15.38;10.55;;;10.40;99.90;;;;;;5055045;28;20052;-71
2022/05/25 00:20:43;;;;;;;12.70;10.48;;;10.40;99.90;;;;;;5054907;28;20045;-71
2022/05/25 00:23:09;;;;;;;12.65;10.25;;;10.30;99.90;;;;;;5054929;28;20448;-71
2022/05/25 00:25:37;;;;;;;13.52;10.35;;;10.40;99.90;;;;;;5054603;28;20106;-71
2022/05/25 00:28:06;;;;;;;15.88;11.10;;;10.30;99.90;;;;;;5054355;28;20517;-70
2022/05/25 00:30:31;;;;;;;13.80;10.30;;;10.40;99.90;;;;;;5054123;28;20076;-71
2022/05/25 00:33:00;;;;;;;13.50;10.02;;;10.30;99.90;;;;;;5054583;28;20080;-71
2022/05/25 00:35:28;;;;;;;13.27;10.73;;;10.30;99.90;;;;;;5037137;28;20099;-71
2022/05/25 00:37:54;;;;;;;15.68;11.18;;;10.30;99.90;;;;;;5053301;28;20088;-71
2022/05/25 00:40:38;;;;;;;12.88;9.73;;;10.30;99.90;;;;;;5054581;28;20077;-71
2022/05/25 00:43:04;;;;;;;12.90;9.93;;;10.30;99.90;;;;;;5054899;28;20044;-71
2022/05/25 00:45:33;;;;;;;12.63;9.82;;;10.40;99.90;;;;;;5028643;28;20049;-72
2022/05/25 00:48:01;;;;;;;14.57;10.13;;;10.40;99.90;;;;;;5019174;28;20444;-71
2022/05/25 00:51:11;;;;;;;13.48;9.65;;;10.30;99.90;;;;;;5018545;28;20042;-71
2022/05/25 00:53:13;;;;;;;15.02;10.63;;;10.30;99.90;;;;;;5018347;28;20554;-71
2022/05/25 00:55:38;;;;;;;12.82;9.95;;;10.30;99.90;;;;;;5019099;28;20058;-71
2022/05/25 00:58:06;;;;;;;13.13;9.85;;;10.30;99.90;;;;;;5018757;28;20046;-71
2022/05/25 01:00:31;;;;;;;13.23;10.30;;;10.30;99.90;;;;;;5037337;28;20073;-70
2022/05/25 01:03:10;;;;;;;14.85;10.75;;;10.30;99.90;;;;;;5057428;28;20092;-71
2022/05/25 01:05:52;;;;;;;14.40;9.93;;;10.20;99.90;;;;;;5058476;28;20451;-70
2022/05/25 01:08:47;;;;;;;13.75;10.15;;;10.30;99.90;;;;;;5058295;28;20068;-71
2022/05/25 01:11:35;;;;;;;13.70;10.02;;;10.30;99.90;;;;;;5027787;28;20542;-72
2022/05/25 01:14:23;;;;;;;16.60;10.45;;;10.30;99.90;;;;;;5057327;28;20052;-71
2022/05/25 01:17:27;;;;;;;10.52;9.30;;;10.30;99.90;;;;;;5058167;28;20056;-71
2022/05/25 01:19:55;;;;;;;16.05;9.70;;;10.30;99.90;;;;;;5040230;28;20493;-71
2022/05/25 01:22:42;;;;;;;14.32;10.27;;;10.20;99.90;;;;;;5041156;28;20077;-72
2022/05/25 01:25:41;;;;;;;12.95;10.15;;;10.30;99.90;;;;;;5056458;28;20059;-71
2022/05/25 01:28:25;;;;;;;13.65;9.82;;;10.20;99.90;;;;;;5057624;28;20474;-72
2022/05/25 01:30:56;;;;;;;12.93;10.00;;;10.30;99.90;;;;;;5058250;28;20045;-71
2022/05/25 01:33:41;;;;;;;13.52;8.77;;;10.30;99.90;;;;;;5040086;28;20465;-72
2022/05/25 01:36:17;;;;;;;17.48;11.57;;;10.20;99.90;;;;;;5057854;28;20041;-70
2022/05/25 01:38:50;;;;;;;13.77;10.55;;;10.30;99.90;;;;;;5038338;28;20151;-71
2022/05/25 01:41:31;;;;;;;15.47;10.37;;;10.20;99.90;;;;;;5057817;28;20099;-71
2022/05/25 01:44:01;;;;;;;14.90;9.85;;;10.20;99.90;;;;;;5057787;28;20048;-71
2022/05/25 01:46:48;;;;;;;17.10;10.63;;;10.20;99.90;;;;;;5057661;28;20045;-71
2022/05/25 01:49:23;;;;;;;13.57;10.25;;;10.30;99.90;;;;;;5040342;28;20451;-72
2022/05/25 01:51:55;;;;;;;15.02;10.82;;;10.30;99.90;;;;;;5057607;28;20053;-71
2022/05/25 01:54:25;;;;;;;15.68;11.00;;;10.20;99.90;;;;;;5055167;28;20133;-71
2022/05/25 01:56:55;;;;;;;13.88;11.48;;;10.30;99.90;;;;;;5056692;28;20053;-71
2022/05/25 01:59:22;;;;;;;17.08;12.13;;;10.30;99.90;;;;;;5057075;28;20056;-71
2022/05/25 02:04:44;;;;;;;19.13;11.57;;;10.20;99.90;;;;;;5056846;28;20454;-71
2022/05/25 02:07:47;;;;;;;16.98;11.65;;;10.20;99.90;;;;;;5040718;28;20053;-72
2022/05/25 02:10:25;;;;;;;20.67;12.35;;;10.20;99.90;;;;;;5019880;28;20119;-71
2022/05/25 02:13:12;;;;;;;16.42;11.90;;;10.20;99.90;;;;;;5037379;28;20057;-70
2022/05/25 02:15:53;;;;;;;17.58;13.13;;;10.20;99.90;;;;;;5037202;28;20135;-71
2022/05/25 02:18:48;;;;;;;19.63;12.68;;;10.20;99.90;;;;;;5036995;28;20042;-71
2022/05/25 02:21:19;;;;;;;20.85;12.88;;;10.10;99.90;;;;;;5028480;28;20153;-71
2022/05/25 02:23:56;;;;;;;19.25;12.27;;;10.10;99.90;;;;;;5056596;28;20494;-71
2022/05/25 02:26:24;;;;;;;20.20;12.35;;;10.20;99.90;;;;;;5056819;28;20069;-71
2022/05/25 02:28:55;;;;;;;13.50;11.45;;;10.10;99.90;;;;;;5056791;28;20057;-71
2022/05/25 02:31:25;;;;;;;18.60;11.57;;;10.20;99.90;;;;;;5056712;28;20040;-71
2022/05/25 02:33:56;;;;;;;21.00;11.52;;;10.20;99.90;;;;;;5056821;28;20045;-72
2022/05/25 02:36:22;;;;;;;16.38;11.50;;;10.20;99.90;;;;;;5035714;28;20380;-70
2022/05/25 02:38:48;;;;;;;14.90;11.95;;;10.20;99.90;;;;;;5016833;28;20065;-71
2022/05/25 02:41:30;;;;;;;21.15;11.70;;;10.20;99.90;;;;;;5016768;28;20042;-70
2022/05/25 02:43:56;;;;;;;16.48;12.07;;;10.20;99.90;;;;;;5016626;28;20415;-72
2022/05/25 02:46:21;;;;;;;15.98;10.68;;;10.20;99.90;;;;;;5016361;28;20049;-71
2022/05/25 02:48:47;;;;;;;16.00;10.50;;;10.20;99.90;;;;;;4999718;28;20392;-71
2022/05/25 02:51:13;;;;;;;20.08;11.40;;;10.20;99.90;;;;;;5043773;28;20045;-71
2022/05/25 02:53:38;;;;;;;18.27;10.50;;;10.30;99.90;;;;;;5056179;28;20037;-70
2022/05/25 02:56:05;;;;;;;17.55;10.63;;;10.30;99.90;;;;;;5056245;28;20060;-70
2022/05/25 02:58:31;;;;;;;16.65;10.32;;;10.20;99.90;;;;;;5053218;28;20049;-71
2022/05/25 03:00:56;;;;;;;17.30;10.77;;;10.20;99.90;;;;;;5056110;28;20355;-71
2022/05/25 03:03:22;;;;;;;16.17;10.30;;;10.20;99.90;;;;;;5056381;28;20378;-71
2022/05/25 03:05:48;;;;;;;14.70;9.90;;;10.20;99.90;;;;;;5041899;28;20463;-71
2022/05/25 03:08:14;;;;;;;14.57;9.80;;;10.20;99.90;;;;;;5036088;28;20053;-72
2022/05/25 03:10:40;;;;;;;15.10;9.90;;;10.20;99.90;;;;;;5036123;28;20047;-71
2022/05/25 03:13:07;;;;;;;16.90;9.85;;;10.20;99.90;;;;;;5036082;28;20459;-71
2022/05/25 03:15:33;;;;;;;23.55;10.60;;;10.20;99.90;;;;;;5018595;28;20045;-70
2022/05/25 03:17:59;;;;;;;15.88;9.88;;;10.20;99.90;;;;;;5040507;28;20040;-72
2022/05/25 03:20:25;;;;;;;21.80;9.63;;;10.20;99.90;;;;;;5055893;28;20045;-71
2022/05/25 03:22:50;;;;;;;13.05;9.40;;;10.20;99.90;;;;;;5055833;28;20045;-71
2022/05/25 03:25:16;;;;;;;16.25;8.77;;;10.20;99.90;;;;;;5055685;28;20052;-71
2022/05/25 03:27:43;;;;;;;13.70;9.70;;;10.20;99.90;;;;;;5055616;28;20045;-70
2022/05/25 03:30:10;;;;;;;12.98;9.05;;;10.20;99.90;;;;;;5055896;28;20056;-71
2022/05/25 03:32:36;;;;;;;15.18;9.38;;;10.20;99.90;;;;;;5049293;28;20447;-70
2022/05/25 03:35:02;;;;;;;15.88;9.32;;;10.10;99.90;;;;;;5050944;28;20102;-71
2022/05/25 03:37:28;;;;;;;20.58;10.60;;;10.10;99.90;;;;;;5055392;28;20067;-71
2022/05/25 03:39:53;;;;;;;16.15;8.52;;;10.10;99.90;;;;;;5055376;28;20053;-71
2022/05/25 03:42:19;;;;;;;13.93;8.65;;;10.10;99.90;;;;;;5055408;28;20041;-71
2022/05/25 03:44:45;;;;;;;13.05;8.65;;;10.10;99.90;;;;;;5055491;28;20049;-70
2022/05/25 03:47:11;;;;;;;15.50;9.27;;;10.10;99.90;;;;;;5052888;28;20037;-71
2022/05/25 03:49:37;;;;;;;14.25;8.45;;;10.10;99.90;;;;;;5055344;28;20052;-72
2022/05/25 03:52:04;;;;;;;13.82;8.25;;;10.10;99.90;;;;;;5055269;28;20422;-72
2022/05/25 03:54:30;;;;;;;12.05;8.75;;;10.10;99.90;;;;;;5055105;28;20055;-71
2022/05/25 03:56:56;;;;;;;13.30;8.50;;;10.20;99.90;;;;;;5037994;28;20106;-71
2022/05/25 03:59:22;;;;;;;13.15;9.15;;;10.10;99.90;;;;;;5055361;28;20044;-70
2022/05/25 04:01:47;;;;;;;16.73;8.48;;;10.20;99.90;;;;;;5051392;28;20041;-70
2022/05/25 04:04:13;;;;;;;17.15;9.32;;;10.20;99.90;;;;;;5018019;28;20124;-71
2022/05/25 04:06:39;;;;;;;19.17;8.98;;;10.10;99.90;;;;;;5034477;28;20053;-71
2022/05/25 04:09:05;;;;;;;15.00;8.13;;;10.20;99.90;;;;;;5034816;28;20103;-71
2022/05/25 04:11:32;;;;;;;13.07;8.20;;;10.20;99.90;;;;;;5035069;28;20104;-71
2022/05/25 04:13:59;;;;;;;13.50;8.02;;;10.30;99.90;;;;;;5035085;28;20087;-71
2022/05/25 04:16:25;;;;;;;15.80;8.10;;;10.30;99.90;;;;;;5036102;28;20098;-72
2022/05/25 04:18:51;;;;;;;13.73;8.57;;;10.30;99.90;;;;;;5053377;28;20040;-70
2022/05/25 04:21:17;;;;;;;13.98;8.13;;;10.30;99.90;;;;;;5054862;28;20585;-72
2022/05/25 04:23:43;;;;;;;11.63;8.18;;;10.30;99.90;;;;;;5054669;28;20045;-71
2022/05/25 04:26:09;;;;;;;18.33;9.50;;;10.40;99.90;;;;;;5054822;28;20063;-70
2022/05/25 04:28:34;;;;;;;17.65;7.78;;;10.40;99.90;;;;;;5024192;28;20127;-71
2022/05/25 04:31:01;;;;;;;16.40;8.18;;;10.40;99.90;;;;;;5014936;28;20444;-71
2022/05/25 04:33:29;;;;;;;12.02;8.38;;;10.40;99.90;;;;;;5014913;28;20054;-70
2022/05/25 04:35:55;;;;;;;14.43;8.15;;;10.40;99.90;;;;;;5014744;28;20415;-71
2022/05/25 04:38:20;;;;;;;12.20;7.88;;;10.40;99.90;;;;;;5014957;28;20054;-72
2022/05/25 04:40:46;;;;;;;15.57;8.40;;;10.40;99.90;;;;;;5014712;28;20375;-70
2022/05/25 04:43:15;;;;;;;12.23;7.45;;;10.40;99.90;;;;;;5024912;28;20049;-71
2022/05/25 04:45:43;;;;;;;11.95;8.10;;;10.50;99.90;;;;;;5017438;28;20049;-71
2022/05/25 04:48:09;;;;;;;12.93;7.28;;;10.50;99.90;;;;;;5034308;28;20077;-71
2022/05/25 04:50:36;;;;;;;19.35;7.88;;;10.50;99.90;;;;;;5017320;28;20077;-71
2022/05/25 04:53:03;;;;;;;12.90;7.82;;;10.50;99.90;;;;;;5034621;28;20064;-71
2022/05/25 04:58:33;;;;;;;12.20;7.43;;;10.60;99.90;;;;;;5033209;28;20093;-71
2022/05/25 05:00:59;;;;;;;11.57;6.50;;;10.70;99.90;;;;;;5034115;28;20037;-71
2022/05/25 05:03:26;;;;;;;12.45;6.90;;;10.70;99.90;;;;;;5017905;28;20037;-71
2022/05/25 05:05:53;;;;;;;14.80;7.70;;;10.70;99.90;;;;;;5054408;28;20042;-70
2022/05/25 05:08:19;;;;;;;16.83;6.88;;;10.80;99.90;;;;;;5054087;28;20045;-71
2022/05/25 05:10:44;;;;;;;15.15;6.13;;;10.80;99.90;;;;;;5054390;28;20051;-71
2022/05/25 05:13:11;;;;;;;13.77;6.13;;;10.90;99.90;;;;;;5054038;28;20119;-71
2022/05/25 05:15:42;;;;;;;13.57;5.78;;;11.00;99.90;;;;;;5053170;28;20140;-71
2022/05/25 05:18:09;;;;;;;9.65;6.15;;;11.10;99.90;;;;;;5054188;28;20083;-71
2022/05/25 05:20:35;;;;;;;7.45;5.60;;;11.20;99.90;;;;;;5054359;28;20045;-70
2022/05/25 05:23:01;;;;;;;13.68;5.00;;;11.30;99.90;;;;;;5054292;28;20332;-69
2022/05/25 05:25:27;;;;;;;13.00;4.90;;;11.40;99.90;;;;;;5054291;28;20052;-69
2022/05/25 05:27:53;;;;;;;12.40;5.45;;;11.50;99.90;;;;;;5054132;28;20041;-69
2022/05/25 05:30:21;;;;;;;13.07;5.38;;;11.60;99.90;;;;;;5043079;28;20041;-69
2022/05/25 05:32:48;;;;;;;11.00;5.38;;;11.60;99.90;;;;;;5018104;28;20428;-69
2022/05/25 05:35:14;;;;;;;10.90;4.85;;;11.70;99.90;;;;;;5018156;28;20109;-70
2022/05/25 05:37:50;;;;;;;9.88;5.15;;;11.70;99.90;;;;;;5017763;28;20149;-73
2022/05/25 05:40:18;;;;;;;13.88;5.13;;;11.80;99.90;;;;;;5018242;28;20058;-73
2022/05/25 05:42:46;;;;;;;15.27;5.53;;;11.80;99.90;;;;;;5017853;28;20073;-71
2022/05/25 05:45:20;;;;;;;15.52;4.75;;;11.90;99.90;;;;;;5039305;28;20120;-72
2022/05/25 05:47:52;;;;;;;8.93;4.80;;;12.00;99.90;;;;;;5055451;28;20057;-71
2022/05/25 05:50:21;;;;;;;13.57;4.63;;;12.00;99.90;;;;;;5057530;28;20056;-70
2022/05/25 05:52:49;;;;;;;14.07;5.40;;;12.20;99.90;;;;;;5054787;28;20088;-71
2022/05/25 05:55:15;;;;;;;10.88;4.60;;;12.20;99.90;;;;;;5057352;28;20341;-72
2022/05/25 05:57:41;;;;;;;9.10;4.85;;;12.30;99.90;;;;;;5057500;28;20083;-72
2022/05/25 06:00:08;;;;;;;8.27;4.70;;;12.40;99.90;;;;;;5056499;28;20077;-71
2022/05/25 06:02:33;;;;;;;13.50;4.65;;;12.40;99.90;;;;;;5040109;28;20079;-72
2022/05/25 06:04:59;;;;;;;11.68;4.78;;;12.50;99.90;;;;;;5039637;28;20045;-71
2022/05/25 06:07:24;;;;;;;9.75;4.78;;;12.60;99.90;;;;;;5056899;28;20041;-72
2022/05/25 06:09:50;;;;;;;10.48;4.25;;;12.70;99.90;;;;;;5039444;28;20048;-72
2022/05/25 06:12:15;;;;;;;7.95;4.70;;;12.80;99.90;;;;;;5044509;28;20049;-73
2022/05/25 06:14:42;;;;;;;13.10;5.60;;;12.80;99.90;;;;;;5037083;28;20135;-72
2022/05/25 06:19:53;;;;;;;14.80;5.30;;;12.90;99.90;;;;;;5037175;28;20053;-71
2022/05/25 06:22:19;;;;;;;13.77;4.88;;;13.00;99.90;;;;;;5037155;28;20068;-72
2022/05/25 06:24:48;;;;;;;10.95;4.65;;;13.00;99.90;;;;;;5036880;28;20453;-72
2022/05/25 06:27:14;;;;;;;9.80;4.88;;;13.10;99.90;;;;;;5049413;28;20126;-71
2022/05/25 06:29:43;;;;;;;12.63;5.38;;;13.20;99.90;;;;;;5039213;28;20053;-72
2022/05/25 06:32:10;;;;;;;15.93;6.97;;;13.30;99.90;;;;;;5056572;28;20041;-72
2022/05/25 06:34:37;;;;;;;12.40;5.43;;;13.30;99.90;;;;;;5037189;28;20088;-72
2022/05/25 06:37:03;;;;;;;12.00;5.43;;;13.30;99.90;;;;;;5022577;28;20448;-72
2022/05/25 06:39:34;;;;;;;9.40;4.80;;;13.40;99.90;;;;;;4996784;28;20062;-71
2022/05/25 06:42:00;;;;;;;13.40;5.60;;;13.50;99.90;;;;;;5016146;28;20042;-72
2022/05/25 06:44:25;;;;;;;10.77;6.18;;;13.60;99.90;;;;;;4999729;28;20052;-72
2022/05/25 06:46:51;;;;;;;12.90;5.47;;;13.60;99.90;;;;;;5017152;28;20054;-73
2022/05/25 06:49:17;;;;;;;8.80;4.70;;;13.70;99.90;;;;;;5025364;28;20049;-72
2022/05/25 06:51:43;;;;;;;10.13;4.85;;;13.80;99.90;;;;;;5055497;28;20044;-73
2022/05/25 06:54:11;;;;;;;12.52;5.00;;;13.90;99.90;;;;;;5056271;28;20045;-72
2022/05/25 06:56:37;;;;;;;8.55;4.78;;;14.00;99.90;;;;;;5038772;28;20048;-72
2022/05/25 06:59:03;;;;;;;6.35;4.28;;;14.00;99.90;;;;;;5056248;28;20048;-72
2022/05/25 07:01:28;;;;;;;8.30;4.95;;;14.10;99.90;;;;;;5039073;28;20044;-74
2022/05/25 07:03:54;;;;;;;10.25;4.72;;;14.20;99.90;;;;;;5054348;28;20123;-73
2022/05/25 07:06:21;;;;;;;8.80;4.32;;;14.10;99.90;;;;;;5056416;28;20045;-74
2022/05/25 07:08:47;;;;;;;15.77;4.93;;;14.10;99.90;;;;;;5056038;28;20059;-73
2022/05/25 07:11:13;;;;;;;7.82;4.25;;;14.10;99.90;;;;;;5055995;28;20112;-72
2022/05/25 07:13:39;;;;;;;14.18;4.18;;;14.20;99.90;;;;;;5056203;28;20044;-74
2022/05/25 07:16:08;;;;;;;10.98;4.68;;;14.20;99.90;;;;;;5055929;28;20124;-72
2022/05/25 07:18:34;;;;;;;5.85;4.15;;;14.20;99.90;;;;;;5053416;28;20055;-74
2022/05/25 07:21:06;;;;;;;8.05;4.25;;;14.20;99.90;;;;;;5052484;28;20469;-73
2022/05/25 07:23:32;;;;;;;6.32;4.60;;;14.20;99.90;;;;;;5056071;28;20414;-73
2022/05/25 07:25:58;;;;;;;11.10;5.13;;;14.30;99.90;;;;;;5055829;28;20059;-72
2022/05/25 07:28:24;;;;;;;12.45;5.65;;;14.40;99.90;;;;;;5055691;28;20123;-72
2022/05/25 07:30:54;;;;;;;6.63;4.63;;;14.50;99.90;;;;;;5055668;28;20378;-72
2022/05/25 07:33:19;;;;;;;6.68;4.40;;;14.70;99.90;;;;;;5023165;28;20049;-73
2022/05/25 07:35:45;;;;;;;6.30;4.20;;;14.70;99.90;;;;;;5035649;28;20038;-72
2022/05/25 07:38:11;;;;;;;9.23;4.90;;;14.70;99.90;;;;;;5035457;28;20127;-73
2022/05/25 07:40:41;;;;;;;7.45;4.72;;;14.70;99.90;;;;;;5035654;28;20440;-72
2022/05/25 07:43:14;;;;;;;8.52;5.07;;;14.60;99.90;;;;;;5015339;28;20513;-74
2022/05/25 07:45:40;;;;;;;5.70;4.73;;;14.70;99.90;;;;;;5035226;28;20455;-73
2022/05/25 07:48:06;;;;;;;9.57;5.05;;;14.60;99.90;;;;;;5047516;28;20319;-73
2022/05/25 07:50:33;;;;;;;7.85;4.93;;;14.60;99.90;;;;;;5055459;28;20049;-72
2022/05/25 07:53:00;;;;;;;10.80;4.63;;;14.60;99.90;;;;;;5055275;28;20049;-73
2022/05/25 07:55:26;;;;;;;7.55;4.80;;;14.80;99.90;;;;;;5055066;28;20049;-72
2022/05/25 07:57:52;;;;;;;7.60;4.25;;;15.00;99.90;;;;;;5055117;28;20067;-74
2022/05/25 08:00:24;;;;;;;5.55;3.83;;;15.00;99.90;;;;;;5055015;28;20052;-74
2022/05/25 08:05:49;;;;;;;10.93;4.50;;;15.00;99.90;;;;;;5017487;28;20061;-73
2022/05/25 08:08:20;;;;;;;5.90;3.55;;;15.20;99.90;;;;;;5035011;28;20057;-72
2022/05/25 08:10:53;;;;;;;6.45;3.28;;;15.20;99.90;;;;;;5035001;28;20045;-73
2022/05/25 08:13:21;;;;;;;5.35;3.58;;;15.10;99.90;;;;;;5034824;28;20139;-72
2022/05/25 08:15:47;;;;;;;5.82;3.90;;;15.10;99.90;;;;;;5047197;28;20118;-73
2022/05/25 08:18:15;;;;;;;11.13;3.90;;;15.10;99.90;;;;;;5055122;28;20510;-74
2022/05/25 08:20:41;;;;;;;7.07;4.25;;;15.30;99.90;;;;;;5054867;28;20123;-73
2022/05/25 08:23:08;;;;;;;6.68;4.18;;;15.40;99.90;;;;;;5054747;28;20049;-73
2022/05/25 08:25:35;;;;;;;5.90;4.00;;;15.50;99.90;;;;;;5037464;28;20045;-73
2022/05/25 08:28:01;;;;;;;11.13;4.82;;;15.40;99.90;;;;;;5037640;28;20051;-72
2022/05/25 08:30:27;;;;;;;6.00;4.63;;;15.40;99.90;;;;;;5052597;28;20048;-74
2022/05/25 08:32:53;;;;;;;5.43;4.22;;;15.40;99.90;;;;;;5037021;28;20455;-71
2022/05/25 08:35:19;;;;;;;8.35;4.80;;;15.30;99.90;;;;;;5052207;28;20063;-74
2022/05/25 08:37:44;;;;;;;8.73;4.40;;;15.30;99.90;;;;;;5034376;28;20045;-72
2022/05/25 08:40:19;;;;;;;8.60;4.43;;;15.30;99.90;;;;;;5034648;28;20060;-71
2022/05/25 08:42:58;;;;;;;6.10;3.70;;;15.30;99.90;;;;;;5034895;28;20045;-73
2022/05/25 08:45:30;;;;;;;4.75;3.92;;;15.50;99.90;;;;;;5034574;28;20060;-74
2022/05/25 08:47:59;;;;;;;12.45;4.20;;;15.70;99.90;;;;;;5034381;28;20459;-73
2022/05/25 08:50:25;;;;;;;6.93;4.07;;;15.70;99.90;;;;;;5037448;28;20041;-74
2022/05/25 08:52:56;;;;;;;6.03;3.72;;;15.60;99.90;;;;;;5054503;28;20041;-74
2022/05/25 08:55:32;;;;;;;8.15;4.28;;;15.60;99.90;;;;;;5054290;28;20137;-73
2022/05/25 08:58:00;;;;;;;11.80;5.45;;;15.50;99.90;;;;;;5054389;28;20041;-74
2022/05/25 09:00:25;;;;;;;7.82;4.40;;;15.40;99.90;;;;;;5054394;28;20076;-72
2022/05/25 09:03:12;;;;;;;5.97;4.10;;;15.40;99.90;;;;;;5036971;28;20439;-73
2022/05/25 09:05:58;;;;;;;5.45;4.40;;;15.40;99.90;;;;;;5047220;28;20053;-73
2022/05/25 09:08:24;;;;;;;8.95;4.70;;;15.40;99.90;;;;;;5052680;28;20049;-73
2022/05/25 09:11:04;;;;;;;7.75;4.05;;;15.40;99.90;;;;;;5058031;28;20336;-73
2022/05/25 09:13:39;;;;;;;7.40;4.32;;;15.50;99.90;;;;;;5058000;28;20431;-73
2022/05/25 09:16:19;;;;;;;8.70;4.55;;;15.70;99.90;;;;;;5040593;28;20148;-73
2022/05/25 09:19:05;;;;;;;8.73;4.20;;;15.90;99.90;;;;;;5058457;28;20041;-74
2022/05/25 09:21:34;;;;;;;7.47;4.28;;;16.10;99.90;;;;;;5032399;28;20376;-72
2022/05/25 09:24:06;;;;;;;10.48;4.28;;;16.20;99.90;;;;;;5057900;28;20045;-72
2022/05/25 09:26:32;;;;;;;12.43;4.30;;;16.30;99.90;;;;;;5037548;28;20049;-74
2022/05/25 09:29:02;;;;;;;9.68;4.55;;;16.50;99.90;;;;;;5058091;28;20040;-72
2022/05/25 09:31:34;;;;;;;7.88;4.82;;;16.40;99.90;;;;;;5058105;28;20045;-74
2022/05/25 09:34:06;;;;;;;10.70;5.05;;;16.30;99.90;;;;;;5057729;28;20044;-73
2022/05/25 09:36:40;;;;;;;7.70;4.50;;;16.50;99.90;;;;;;5057445;28;20049;-73
2022/05/25 09:39:12;;;;;;;7.63;4.47;;;16.50;99.90;;;;;;5058030;28;20102;-72
2022/05/25 09:41:42;;;;;;;9.38;4.53;;;16.50;99.90;;;;;;5057914;28;20049;-73
2022/05/25 09:44:11;;;;;;;10.20;4.78;;;16.30;99.90;;;;;;5057881;28;20059;-73
2022/05/25 09:46:50;;;;;;;10.38;5.60;;;16.20;99.90;;;;;;5057412;28;20041;-72
2022/05/25 09:49:40;;;;;;;16.30;7.15;;;16.30;99.90;;;;;;5055604;28;20056;-73
2022/05/25 09:52:22;;;;;;;11.75;8.00;;;16.00;99.90;;;;;;5057182;28;20462;-73
2022/05/25 09:55:01;;;;;;;11.32;7.70;;;15.90;99.90;;;;;;5057353;28;20332;-72
2022/05/25 09:57:52;;;;;;;14.25;9.25;;;16.20;99.90;;;;;;5057411;28;20129;-73
2022/05/25 10:00:33;;;;;;;15.35;8.38;;;16.20;99.90;;;;;;5057281;28;20044;-72
2022/05/25 10:03:21;;;;;;;12.57;9.77;;;16.20;99.90;;;;;;5049513;28;20049;-73
2022/05/25 10:05:57;;;;;;;17.58;12.00;;;16.10;99.90;;;;;;5037336;28;20049;-72
2022/05/25 10:08:26;;;;;;;14.02;11.02;;;16.20;99.90;;;;;;5037464;28;20045;-74
2022/05/25 10:10:56;;;;;;;14.25;11.30;;;16.10;99.90;;;;;;5037502;28;20116;-73
2022/05/25 10:13:28;;;;;;;15.40;12.27;;;16.00;99.90;;;;;;5037068;28;20041;-74
2022/05/25 10:15:55;;;;;;;13.40;11.18;;;15.70;99.90;;;;;;5035634;28;20060;-73
2022/05/25 10:18:36;;;;;;;12.32;8.93;;;15.70;99.90;;;;;;5048468;28;20037;-72
2022/05/25 10:21:04;;;;;;;11.73;8.90;;;15.60;99.90;;;;;;5056993;28;20394;-72
2022/05/25 10:23:30;;;;;;;10.98;8.80;;;15.40;99.90;;;;;;5057193;28;20041;-72
2022/05/25 10:26:19;;;;;;;9.48;7.25;;;15.20;99.90;;;;;;5039190;28;20045;-73
2022/05/25 10:28:51;;;;;;;11.95;7.55;;;15.30;99.90;;;;;;5056652;28;20049;-73
2022/05/25 10:37:08;;;;;;;8.82;4.32;;;15.80;99.90;;;;;;5036462;28;20049;-73
2022/05/25 10:39:45;;;;;;;5.40;4.10;;;16.10;99.90;;;;;;5036651;28;20379;-73
2022/05/25 10:42:39;;;;;;;7.72;5.32;;;16.30;99.90;;;;;;5036982;28;20049;-73
2022/05/25 10:45:12;;;;;;;9.98;6.75;;;16.10;99.90;;;;;;5035136;28;20053;-74
2022/05/25 10:47:54;;;;;;;9.82;7.25;;;16.10;99.90;;;;;;5016759;28;20104;-73
2022/05/25 10:50:51;;;;;;;11.15;9.20;;;16.40;99.90;;;;;;4999427;28;20072;-74
2022/05/25 10:57:02;;;;;;;9.02;8.07;;;16.50;99.90;;;;;;4918216;29;20056;-72
2022/05/25 11:00:00;;;;;;;13.10;7.90;;;16.60;99.90;;;;;;4918088;29;20052;-72
2022/05/25 11:03:03;;;;;;;9.27;3.42;;;16.70;99.90;;;;;;5018144;28;20435;-73
2022/05/25 11:05:57;;;;;;;6.80;2.70;;;16.90;99.90;;;;;;5016599;28;20054;-73
2022/05/25 11:08:48;;;;;;;10.60;2.40;;;16.70;99.90;;;;;;5016544;28;20042;-73
2022/05/25 11:11:24;;;;;;;4.80;2.45;;;17.20;99.90;;;;;;5016485;28;20057;-73
2022/05/25 11:14:06;;;;;;;5.60;1.95;;;17.40;99.90;;;;;;5016208;28;20046;-72
2022/05/25 11:16:31;;;;;;;3.25;1.80;;;17.40;99.90;;;;;;5016097;28;20045;-73
2022/05/25 11:19:21;;;;;;;7.40;2.80;;;17.30;99.90;;;;;;5013615;28;20382;-73
2022/05/25 11:22:18;;;;;;;10.65;2.78;;;17.40;99.90;;;;;;5055877;28;20402;-73
2022/05/25 11:24:52;;;;;;;9.65;4.75;;;17.50;99.90;;;;;;5052569;28;20378;-72
2022/05/25 11:27:36;;;;;;;2.95;1.48;;;17.60;99.90;;;;;;5055717;28;20135;-73
2022/05/25 11:30:21;;;;;;;3.60;1.58;;;17.50;99.90;;;;;;5055759;28;20049;-73
2022/05/25 11:33:22;;;;;;;4.20;2.00;;;17.40;99.90;;;;;;5055356;28;20370;-73
2022/05/25 11:35:52;;;;;;;8.30;2.20;;;17.50;99.90;;;;;;5055642;28;20056;-74
2022/05/25 11:38:21;;;;;;;8.85;2.40;;;17.30;99.90;;;;;;5021670;28;20060;-73
2022/05/25 11:41:01;;;;;;;8.45;2.22;;;17.60;99.90;;;;;;5054657;28;20049;-73
2022/05/25 11:43:50;;;;;;;3.08;1.08;;;17.40;99.90;;;;;;5055200;28;20053;-72
2022/05/25 11:46:42;;;;;;;4.38;1.85;;;17.30;99.90;;;;;;5055623;28;20091;-73
2022/05/25 11:49:38;;;;;;;4.80;2.40;;;17.20;99.90;;;;;;5055403;28;20120;-73
2022/05/25 11:52:42;;;;;;;5.90;2.40;;;17.10;99.90;;;;;;5054918;28;20493;-71
2022/05/25 11:55:16;;;;;;;7.47;2.65;;;17.00;99.90;;;;;;5040232;28;20049;-72
2022/05/25 11:58:26;;;;;;;4.32;1.90;;;17.00;99.90;;;;;;5017497;28;20053;-74
2022/05/25 12:01:02;;;;;;;5.20;1.58;;;17.00;99.90;;;;;;5035171;28;20049;-73
2022/05/25 12:03:34;;;;;;;5.68;2.10;;;17.10;99.90;;;;;;5035142;28;20133;-73
2022/05/25 12:06:18;;;;;;;4.57;1.80;;;16.90;99.90;;;;;;5035327;28;20102;-72
2022/05/25 12:08:50;;;;;;;6.80;2.00;;;16.80;99.90;;;;;;5039461;28;20363;-73
2022/05/25 12:11:29;;;;;;;4.78;2.10;;;16.40;99.90;;;;;;5036844;28;20052;-72
2022/05/25 12:14:23;;;;;;;6.82;2.88;;;16.40;99.90;;;;;;5054835;28;20049;-74
2022/05/25 12:16:52;;;;;;;9.40;2.50;;;16.40;99.90;;;;;;5054692;28;20336;-72
2022/05/25 12:19:23;;;;;;;7.43;2.60;;;16.40;99.90;;;;;;5054560;28;20443;-72
2022/05/25 12:21:58;;;;;;;4.38;2.33;;;16.30;99.90;;;;;;5054582;28;20044;-72
2022/05/25 12:24:32;;;;;;;6.57;1.77;;;16.20;99.90;;;;;;5046655;28;20059;-73
2022/05/25 12:27:02;;;;;;;4.80;2.33;;;16.10;99.90;;;;;;5017520;28;20487;-72
2022/05/25 12:29:36;;;;;;;7.63;2.70;;;16.10;99.90;;;;;;5054728;28;20044;-73
2022/05/25 12:32:02;;;;;;;8.38;3.08;;;16.40;99.90;;;;;;5054711;28;20137;-73
2022/05/25 12:34:40;;;;;;;6.07;2.20;;;16.40;99.90;;;;;;5054779;28;20136;-72
2022/05/25 12:37:09;;;;;;;5.40;2.33;;;16.40;99.90;;;;;;5054698;28;20049;-73
2022/05/25 12:39:46;;;;;;;4.80;2.40;;;16.30;99.90;;;;;;5034912;28;20390;-73
2022/05/25 12:42:24;;;;;;;6.47;2.40;;;16.20;99.90;;;;;;5054582;28;20348;-71
2022/05/25 12:50:35;;;;;;;5.82;2.20;;;16.30;99.90;;;;;;5054508;28;20049;-72
2022/05/25 12:53:24;;;;;;;4.05;1.70;;;16.70;99.90;;;;;;5050669;28;20052;-72
2022/05/25 12:55:58;;;;;;;6.30;1.85;;;17.00;99.90;;;;;;5054515;28;20362;-72
2022/05/25 12:58:42;;;;;;;5.47;1.65;;;16.90;99.90;;;;;;5054534;28;20371;-72
2022/05/25 13:01:14;;;;;;;5.18;1.50;;;16.70;99.90;;;;;;5054469;28;20033;-73
2022/05/25 13:03:48;;;;;;;8.35;1.70;;;16.40;99.90;;;;;;5054382;28;20052;-73
2022/05/25 13:06:17;;;;;;;;;;;16.40;99.90;;;;;;5054789;28;20041;-72
2022/05/25 13:08:58;;;;;;;5.95;1.90;;;16.30;99.90;;;;;;5035672;28;19920;-73
2022/05/25 13:11:46;;;;;;;5.38;2.08;;;16.20;99.90;;;;;;5054256;28;20060;-72
2022/05/25 13:14:17;;;;;;;8.50;1.65;;;16.20;99.90;;;;;;5054000;28;20076;-73
2022/05/25 13:16:44;;;;;;;5.68;1.88;;;16.20;99.90;;;;;;5054559;28;20053;-73
2022/05/25 13:19:38;;;;;;;5.78;1.70;;;16.40;99.90;;;;;;5054511;28;20052;-73
2022/05/25 13:22:03;;;;;;;4.20;1.48;;;16.60;99.90;;;;;;5052119;28;20051;-72
2022/05/25 13:24:58;;;;;;;13.70;1.80;;;16.50;99.90;;;;;;5054495;28;20049;-74
2022/05/25 13:28:01;;;;;;;3.40;1.42;;;16.60;99.90;;;;;;5053991;28;20124;-74
2022/05/25 13:30:39;;;;;;;6.93;1.50;;;16.50;99.90;;;;;;5054210;28;20045;-72